Time;durP1;ratioP1;P1;durP2;ratioP2;P2;SDS_P1;SDS_P2;PMS_P1;PMS_P2;Temp;Humidity;BMP_temperature;BMP_pressure;BME280_temperature;BME280_humidity;BME280_pressure;Samples;Min_cycle;Max_cycle;Signal;HPM_P1;HPM_P2
2022/02/16 00:00:58;;;;;;;8.85;2.42;;;;;;;5.11;99.12;99872.09;6214206;23;20503;-94
2022/02/16 00:03:27;;;;;;;6.03;2.15;;;;;;;4.78;100.00;99818.97;6212324;23;20111;-92
2022/02/16 00:05:57;;;;;;;6.80;2.28;;;;;;;4.96;100.00;99842.88;6206397;23;20055;-92
2022/02/16 00:08:26;;;;;;;4.93;2.00;;;;;;;4.85;98.92;99815.25;6187471;23;20024;-91
2022/02/16 00:10:58;;;;;;;4.95;2.30;;;;;;;4.77;100.00;99803.28;6213364;23;20071;-92
2022/02/16 00:13:32;;;;;;;5.25;2.15;;;;;;;4.82;100.00;99824.97;6217268;23;20016;-94
2022/02/16 00:16:08;;;;;;;10.48;2.58;;;;;;;4.78;100.00;99797.97;6224324;23;20052;-93
2022/02/16 00:18:39;;;;;;;4.38;2.35;;;;;;;4.86;100.00;99816.09;6222066;23;20012;-93
2022/02/16 00:21:15;;;;;;;8.13;2.42;;;;;;;4.97;100.00;99820.97;6218275;23;20591;-93
2022/02/16 00:23:55;;;;;;;6.28;2.05;;;;;;;4.79;100.00;99772.59;6215863;23;20021;-94
2022/02/16 00:26:46;;;;;;;6.68;2.40;;;;;;;4.93;100.00;99814.97;6205294;23;20445;-95
2022/02/16 00:29:30;;;;;;;11.60;2.50;;;;;;;4.86;100.00;99795.97;6216334;23;20019;-92
2022/02/16 00:32:09;;;;;;;7.05;2.35;;;;;;;5.00;100.00;99828.75;6217810;23;20056;-92
2022/02/16 00:34:53;;;;;;;9.40;2.50;;;;;;;4.77;100.00;99785.75;6217807;23;20520;-94
2022/02/16 00:37:31;;;;;;;5.45;2.10;;;;;;;4.92;100.00;99815.88;6215024;23;20020;-92
2022/02/16 00:40:21;;;;;;;11.00;2.50;;;;;;;5.04;99.45;99810.22;6189703;23;20032;-92
2022/02/16 00:42:52;;;;;;;7.38;2.58;;;;;;;5.02;99.61;99800.72;6214060;23;20023;-94
2022/02/16 00:45:32;;;;;;;5.75;2.30;;;;;;;4.85;100.00;99761.91;6212410;23;20036;-93
2022/02/16 00:48:03;;;;;;;10.60;2.30;;;;;;;4.92;100.00;99787.03;6210389;23;20048;-92
2022/02/16 00:50:34;;;;;;;9.07;2.57;;;;;;;4.80;100.00;99761.22;6217413;23;20028;-93
2022/02/16 00:53:16;;;;;;;8.35;2.90;;;;;;;5.10;100.00;99817.88;6225566;23;20384;-92
2022/02/16 00:55:52;;;;;;;4.93;2.00;;;;;;;4.95;100.00;99792.16;6227814;23;20036;-93
2022/02/16 00:58:21;;;;;;;6.72;2.00;;;;;;;5.04;100.00;99789.22;6219694;23;20023;-92
2022/02/16 01:00:51;;;;;;;7.20;2.30;;;;;;;4.78;100.00;99752.53;6213402;23;20376;-92
2022/02/16 01:03:23;;;;;;;8.52;2.40;;;;;;;4.87;100.00;99771.44;6214079;23;20024;-94
2022/02/16 01:05:55;;;;;;;7.57;2.60;;;;;;;4.93;100.00;99770.38;6161144;23;20020;-92
2022/02/16 01:08:24;;;;;;;7.28;2.60;;;;;;;4.79;100.00;99749.00;6212175;23;20017;-91
2022/02/16 01:11:02;;;;;;;9.18;2.72;;;;;;;4.78;100.00;99747.28;6211079;23;20016;-93
2022/02/16 01:13:33;;;;;;;6.40;2.30;;;;;;;4.93;100.00;99765.13;6210590;23;20432;-94
2022/02/16 01:16:13;;;;;;;4.75;2.55;;;;;;;4.72;100.00;99734.38;6212154;23;20040;-93
2022/02/16 01:18:50;;;;;;;8.23;2.67;;;;;;;4.96;100.00;99762.41;6212953;23;20048;-93
2022/02/16 01:21:18;;;;;;;7.85;2.80;;;;;;;5.02;100.00;99771.84;6214078;23;20018;-91
2022/02/16 01:23:46;;;;;;;4.88;2.70;;;;;;;4.83;100.00;99742.75;6213931;23;20023;-95
2022/02/16 01:26:21;;;;;;;9.80;2.80;;;;;;;5.01;100.00;99768.34;6186454;23;20071;-92
2022/02/16 01:28:55;;;;;;;8.75;3.13;;;;;;;4.75;100.00;99711.50;6213389;23;20016;-94
2022/02/16 01:31:27;;;;;;;5.63;2.63;;;;;;;4.98;100.00;99762.34;6212924;23;20028;-92
2022/02/16 01:33:56;;;;;;;10.73;3.40;;;;;;;4.72;100.00;99708.16;6212537;23;20017;-92
2022/02/16 01:36:24;;;;;;;5.68;2.97;;;;;;;4.87;100.00;99724.25;6212239;23;20780;-92
2022/02/16 01:38:56;;;;;;;10.50;3.22;;;;;;;4.93;100.00;99731.03;6214226;23;20020;-93
2022/02/16 01:41:24;;;;;;;9.95;3.40;;;;;;;4.73;100.00;99696.72;6187363;23;20475;-93
2022/02/16 01:43:53;;;;;;;7.63;3.30;;;;;;;4.73;100.00;99683.63;6212658;23;20019;-93
2022/02/16 01:46:30;;;;;;;11.25;3.90;;;;;;;4.86;100.00;99705.91;6212620;23;20057;-93
2022/02/16 01:49:08;;;;;;;8.73;3.83;;;;;;;4.69;100.00;99677.66;6215089;23;20016;-93
2022/02/16 01:51:39;;;;;;;8.57;3.40;;;;;;;4.69;100.00;99684.66;6213771;23;20124;-94
2022/02/16 01:54:16;;;;;;;8.82;4.10;;;;;;;5.00;100.00;99719.41;6214302;23;20024;-93
2022/02/16 01:56:52;;;;;;;8.68;3.42;;;;;;;4.75;100.00;99672.16;6185403;23;20148;-94
2022/02/16 01:59:27;;;;;;;12.20;3.83;;;;;;;4.68;100.00;99659.34;6188362;23;20451;-92
2022/02/16 02:01:54;;;;;;;9.88;4.10;;;;;;;4.71;100.00;99664.50;6218306;23;20028;-94
2022/02/16 02:04:31;;;;;;;;;;;;;;;;;;;;;
2022/02/16 02:07:26;;;;;;;8.07;4.05;;;;;;;4.94;100.00;99703.88;6187584;23;20456;-94
2022/02/16 02:10:00;;;;;;;16.10;4.85;;;;;;;4.90;100.00;99689.13;6219837;23;20016;-96
2022/02/16 02:12:59;;;;;;;12.63;4.10;;;;;;;4.94;100.00;99688.13;6224592;23;20020;-94
2022/02/16 02:15:28;;;;;;;9.25;4.60;;;;;;;4.66;100.00;99646.28;6215065;23;20016;-94
2022/02/16 02:18:01;;;;;;;13.93;4.50;;;;;;;4.68;100.00;99638.38;6211898;23;20043;-93
2022/02/16 02:20:49;;;;;;;13.07;4.30;;;;;;;4.72;100.00;99639.97;6205716;23;20024;-93
2022/02/16 02:23:28;;;;;;;8.30;4.32;;;;;;;4.68;100.00;99617.38;6217555;23;20130;-92
2022/02/16 02:26:17;;;;;;;12.52;4.40;;;;;;;4.67;100.00;99618.28;6101287;23;20085;-94
2022/02/16 02:28:53;;;;;;;8.55;3.80;;;;;;;4.65;100.00;99622.72;6087734;23;20024;-94
2022/02/16 02:31:37;;;;;;;10.00;4.03;;;;;;;4.98;100.00;99660.88;6111565;23;20079;-93
2022/02/16 02:34:21;;;;;;;11.40;4.55;;;;;;;4.95;100.00;99653.13;6108353;23;20105;-95
2022/02/16 02:37:08;;;;;;;;;;;;;;;;;;;;;
2022/02/16 02:39:41;;;;;;;8.30;3.88;;;;;;;4.64;100.00;99595.66;6092220;23;20022;-93
2022/02/16 02:42:09;;;;;;;13.85;4.63;;;;;;;4.62;100.00;99591.38;6095350;23;20425;-94
2022/02/16 02:44:44;;;;;;;10.50;4.60;;;;;;;4.72;100.00;99606.69;6171451;23;20028;-94
2022/02/16 02:47:15;;;;;;;9.38;4.70;;;;;;;4.74;100.00;99606.66;6208116;23;20043;-93
2022/02/16 02:50:03;;;;;;;9.38;4.47;;;;;;;4.59;100.00;99580.06;6217425;23;20099;-93
2022/02/16 02:52:36;;;;;;;8.02;4.18;;;;;;;4.77;100.00;99604.78;6190542;23;20491;-92
2022/02/16 02:55:29;;;;;;;8.75;5.00;;;;;;;4.67;100.00;99584.19;6214938;23;20043;-93
2022/02/16 02:58:09;;;;;;;11.65;4.20;;;;;;;4.86;100.00;99622.84;6216239;23;20433;-94
2022/02/16 03:00:49;;;;;;;;;;;;;;;;;;;;;
2022/02/16 03:03:24;;;;;;;7.70;4.10;;;;;;;4.78;100.00;99597.78;6218604;23;20024;-94
2022/02/16 03:06:03;;;;;;;7.60;4.30;;;;;;;4.92;100.00;99614.72;6220076;23;20029;-94
2022/02/16 03:08:44;;;;;;;;;;;;;;;;;;;;;
2022/02/16 03:15:35;;;;;;;11.23;4.70;;;;;;;4.83;100.00;99590.59;6210880;23;20039;-94
2022/02/16 03:18:33;;;;;;;;;;;;;;;;;;;;;
2022/02/16 03:21:53;;;;;;;;;;;;;;;;;;;;;
2022/02/16 03:24:35;;;;;;;12.00;4.63;;;;;;;4.82;100.00;99583.66;6220957;23;20063;-92
2022/02/16 03:27:26;;;;;;;9.52;3.83;;;;;;;4.77;100.00;99549.72;6215996;23;20024;-93
2022/02/16 03:30:28;;;;;;;8.90;4.50;;;;;;;4.96;100.00;99593.63;6157723;23;20083;-95
2022/02/16 03:33:35;;;;;;;9.00;4.00;;;;;;;4.85;100.00;99567.81;6212622;23;20028;-93
2022/02/16 03:37:04;;;;;;;11.30;4.35;;;;;;;4.92;100.00;99577.13;6217729;23;20031;-93
2022/02/16 03:40:07;;;;;;;9.13;4.55;;;;;;;4.93;100.00;99569.22;6218571;23;20406;-95
2022/02/16 03:43:45;;;;;;;;;;;;;;;;;;;;;
2022/02/16 03:47:21;;;;;;;11.35;4.22;;;;;;;4.95;100.00;99574.41;6191243;23;20008;-94
2022/02/16 03:49:57;;;;;;;10.75;4.38;;;;;;;4.69;100.00;99519.44;6219699;23;20047;-94
2022/02/16 03:53:02;;;;;;;7.55;4.43;;;;;;;4.83;100.00;99543.38;6202550;23;20344;-94
2022/02/16 03:56:03;;;;;;;12.27;4.07;;;;;;;4.94;100.00;99556.94;6219634;23;20016;-93
2022/02/16 03:58:36;;;;;;;8.10;3.92;;;;;;;4.84;100.00;99542.47;6218579;23;20017;-93
2022/02/16 04:01:31;;;;;;;8.30;4.32;;;;;;;4.80;100.00;99522.50;6217275;23;20047;-93
2022/02/16 04:04:03;;;;;;;8.05;3.65;;;;;;;4.81;100.00;99519.84;6193033;23;20432;-94
2022/02/16 04:06:58;;;;;;;9.38;4.28;;;;;;;4.68;100.00;99499.38;6217718;23;20499;-94
2022/02/16 04:09:41;;;;;;;;;;;;;;;;;;;;;
2022/02/16 04:12:28;;;;;;;7.55;3.85;;;;;;;4.85;100.00;99529.31;6218138;23;20024;-95
2022/02/16 04:15:02;;;;;;;6.55;3.63;;;;;;;4.84;100.00;99524.13;6217760;23;20023;-93
2022/02/16 04:17:39;;;;;;;11.32;3.90;;;;;;;4.72;100.00;99503.59;6217525;23;20075;-93
2022/02/16 04:20:12;;;;;;;7.03;3.78;;;;;;;4.69;100.00;99499.31;6217181;23;20013;-93
2022/02/16 04:22:56;;;;;;;7.35;3.42;;;;;;;4.86;100.00;99523.16;6217862;23;20023;-94
2022/02/16 04:25:35;;;;;;;6.18;3.10;;;;;;;5.05;100.00;99535.53;6215106;23;20506;-93
2022/02/16 04:28:10;;;;;;;7.53;3.65;;;;;;;4.85;100.00;99504.84;6216713;23;20448;-93
2022/02/16 04:30:41;;;;;;;7.72;2.97;;;;;;;4.96;100.00;99507.06;6219736;23;20020;-95
2022/02/16 04:33:12;;;;;;;6.68;3.30;;;;;;;5.05;100.00;99531.16;6219352;23;20075;-94
2022/02/16 04:36:35;;;;;;;;;;;;;;;;;;;;;
2022/02/16 04:39:16;;;;;;;;;;;;;;;;;;;;;
2022/02/16 04:42:04;;;;;;;;;;;;;;;5.03;100.00;99512.03;6216405;22;20021;-94
2022/02/16 04:44:34;;;;;;;10.43;3.90;;;;;;;4.90;100.00;99488.00;6217091;23;19915;-93
2022/02/16 04:47:27;;;;;;;8.07;3.67;;;;;;;4.79;100.00;99461.34;6181058;23;20028;-93
2022/02/16 04:50:25;;;;;;;5.95;3.38;;;;;;;4.96;100.00;99491.31;6219856;23;20024;-94
2022/02/16 04:53:38;;;;;;;8.68;3.10;;;;;;;4.94;100.00;99483.50;6217166;23;20039;-92
2022/02/16 04:56:11;;;;;;;6.35;2.90;;;;;;;5.05;100.00;99490.94;6215086;23;20020;-93
2022/02/16 04:58:50;;;;;;;7.38;2.92;;;;;;;4.83;100.00;99460.31;6212303;23;20016;-95
2022/02/16 05:01:31;;;;;;;4.05;2.95;;;;;;;4.85;100.00;99457.63;6215581;23;20214;-93
2022/02/16 05:03:59;;;;;;;6.38;2.97;;;;;;;5.10;100.00;99502.13;6218905;23;20044;-92
2022/02/16 05:06:28;;;;;;;9.05;3.55;;;;;;;5.04;100.00;99484.84;6189240;23;20492;-94
2022/02/16 05:09:02;;;;;;;7.82;3.25;;;;;;;4.86;100.00;99454.09;6214049;23;20035;-93
2022/02/16 05:11:55;;;;;;;8.25;3.33;;;;;;;4.89;100.00;99449.56;6225835;23;20019;-92
2022/02/16 05:17:51;;;;;;;5.85;2.70;;;;;;;5.02;100.00;99455.22;6198416;23;20104;-93
2022/02/16 05:20:40;;;;;;;6.57;2.90;;;;;;;5.11;100.00;99472.34;6157098;23;20473;-94
2022/02/16 05:23:09;;;;;;;5.15;2.97;;;;;;;4.89;100.00;99428.56;6157770;23;20096;-93
2022/02/16 05:29:50;;;;;;;8.43;3.13;;;;;;;5.13;100.00;99450.38;6156651;23;20040;-91
2022/02/16 05:44:28;;;;;;;7.47;3.25;;;;;;;4.92;100.00;99383.88;6200651;23;20101;-95
2022/02/16 05:47:01;;;;;;;9.55;3.30;;;;;;;4.88;100.00;99373.53;6217053;23;20511;-93
2022/02/16 05:49:29;;;;;;;7.28;2.90;;;;;;;5.07;100.00;99416.50;6217364;23;20075;-94
2022/02/16 05:51:56;;;;;;;4.95;3.10;;;;;;;5.07;100.00;99402.53;6188571;23;20016;-94
2022/02/16 05:54:54;;;;;;;6.80;2.88;;;;;;;5.01;100.00;99401.03;6219946;23;20047;-95
2022/02/16 06:01:39;;;;;;;7.88;3.10;;;;;;;5.05;100.00;99368.47;6121613;23;20029;-95
2022/02/16 06:04:08;;;;;;;7.57;2.55;;;;;;;5.13;100.00;99379.53;6130503;23;20085;-92
2022/02/16 06:06:57;;;;;;;;;;;;;;;;;;;;;
2022/02/16 06:09:41;;;;;;;7.40;3.10;;;;;;;5.23;100.00;99386.09;6099743;23;20101;-91
2022/02/16 06:12:19;;;;;;;8.98;2.75;;;;;;;5.05;100.00;99354.50;6126352;23;20141;-94
2022/02/16 06:15:15;;;;;;;5.97;2.80;;;;;;;5.19;100.00;99374.03;6158125;23;20074;-91
2022/02/16 06:17:46;;;;;;;5.18;2.65;;;;;;;5.42;100.00;99398.47;6243797;23;20095;-93
2022/02/16 06:20:26;;;;;;;;;;;;;;;;;;;;;
2022/02/16 06:23:03;;;;;;;;;;;;;;;;;;;;;
2022/02/16 06:25:39;;;;;;;5.53;2.53;;;;;;;5.26;100.00;99356.25;6244921;23;20020;-94
2022/02/16 06:28:41;;;;;;;;;;;;;;;;;;;;;
2022/02/16 06:31:15;;;;;;;4.07;2.30;;;;;;;5.08;100.00;99310.63;6248268;23;20090;-94
2022/02/16 06:33:43;;;;;;;8.30;2.53;;;;;;;5.18;100.00;99324.22;6244871;23;20016;-96
2022/02/16 06:36:52;;;;;;;5.10;2.70;;;;;;;5.18;100.00;99319.00;6247561;23;20000;-96
2022/02/16 06:39:44;;;;;;;5.78;2.90;;;;;;;5.33;100.00;99336.72;6249077;23;20016;-93
2022/02/16 06:42:12;;;;;;;7.72;2.85;;;;;;;5.41;100.00;99346.88;6249265;23;20020;-93
2022/02/16 06:44:41;;;;;;;4.95;3.67;;;;;;;5.31;100.00;99337.69;6241931;23;20110;-93
2022/02/16 06:49:52;;;;;;;6.28;3.70;;;;;;;5.28;100.00;99336.91;6239271;22;20103;-94
2022/02/16 06:52:21;;;;;;;8.40;3.25;;;;;;;5.28;100.00;99334.28;6240440;23;20049;-92
2022/02/16 06:54:50;;;;;;;11.05;3.47;;;;;;;5.28;100.00;99328.16;6246075;23;20012;-94
2022/02/16 06:57:24;;;;;;;11.13;3.00;;;;;;;5.16;100.00;99295.44;6243344;23;20031;-96
2022/02/16 07:00:02;;;;;;;7.97;3.30;;;;;;;5.32;100.00;99318.41;6218536;23;20024;-94
2022/02/16 07:02:33;;;;;;;10.30;3.00;;;;;;;5.45;100.00;99338.81;6247320;23;20589;-96
2022/02/16 07:05:06;;;;;;;6.70;3.05;;;;;;;5.22;100.00;99310.03;6248187;23;20095;-94
2022/02/16 07:07:34;;;;;;;10.80;3.50;;;;;;;5.53;100.00;99362.09;6255460;23;20047;-94
2022/02/16 07:10:02;;;;;;;12.00;3.40;;;;;;;5.43;100.00;99334.53;6256973;23;20092;-93
2022/02/16 07:12:43;;;;;;;9.93;3.38;;;;;;;5.52;100.00;99342.00;6242670;23;20159;-93
2022/02/16 07:15:24;;;;;;;9.20;3.20;;;;;;;5.18;100.00;99288.34;6244090;23;20047;-93
2022/02/16 07:17:52;;;;;;;8.77;3.33;;;;;;;5.49;100.00;99329.03;6244895;23;20062;-92
2022/02/16 07:20:28;;;;;;;10.43;2.72;;;;;;;5.38;100.00;99310.25;6246969;23;20459;-92
2022/02/16 07:23:03;;;;;;;13.25;3.13;;;;;;;5.35;100.00;99303.38;6247272;23;20020;-94
2022/02/16 07:25:33;;;;;;;4.85;2.83;;;;;;;5.19;100.00;99253.31;6261770;23;20039;-95
2022/02/16 07:30:49;;;;;;;5.35;3.00;;;;;;;5.40;100.00;99292.66;6279394;22;20046;-92
2022/02/16 07:33:17;;;;;;;6.38;2.75;;;;;;;5.39;100.00;99280.44;6249489;22;20023;-93
2022/02/16 07:35:44;;;;;;;7.05;2.85;;;;;;;5.58;100.00;99302.34;6270866;22;20047;-91
2022/02/16 07:38:11;;;;;;;9.45;2.80;;;;;;;5.58;100.00;99302.34;6245255;22;20098;-93
2022/02/16 07:40:38;;;;;;;5.85;3.33;;;;;;;5.54;100.00;99296.38;6275802;22;20030;-94
2022/02/16 07:43:08;;;;;;;9.25;3.00;;;;;;;5.55;100.00;99281.47;6277062;22;20019;-92
2022/02/16 07:45:37;;;;;;;7.68;2.67;;;;;;;5.44;100.00;99255.72;6245873;22;20113;-92
2022/02/16 07:48:05;;;;;;;7.28;3.25;;;;;;;5.61;100.00;99275.97;6268073;22;20028;-93
2022/02/16 07:50:32;;;;;;;4.60;2.55;;;;;;;5.46;100.00;99232.00;6245240;22;20026;-92
2022/02/16 07:53:04;;;;;;;8.88;2.78;;;;;;;5.44;100.00;99244.34;6274507;22;20082;-94
2022/02/16 07:55:35;;;;;;;4.53;2.30;;;;;;;5.55;100.00;99252.59;6273671;22;20024;-92
2022/02/16 07:58:02;;;;;;;4.65;3.00;;;;;;;5.46;100.00;99238.13;6276667;22;20090;-93
2022/02/16 08:00:33;;;;;;;7.50;3.08;;;;;;;5.54;100.00;99235.97;6275834;22;20451;-91
2022/02/16 08:03:00;;;;;;;5.03;2.55;;;;;;;5.76;100.00;99264.78;6249546;22;20094;-93
2022/02/16 08:05:47;;;;;;;7.50;2.50;;;;;;;5.64;100.00;99244.31;6247708;22;20131;-92
2022/02/16 08:08:14;;;;;;;5.03;2.70;;;;;;;5.47;100.00;99215.34;6273982;22;20016;-93
2022/02/16 08:10:48;;;;;;;5.30;2.40;;;;;;;5.57;100.00;99238.47;6275154;22;20077;-93
2022/02/16 08:13:17;;;;;;;7.95;2.70;;;;;;;5.66;100.00;99260.88;6277079;22;20331;-92
2022/02/16 08:15:44;;;;;;;7.35;2.40;;;;;;;5.67;100.00;99236.28;6250256;22;20035;-92
2022/02/16 08:18:15;;;;;;;6.60;2.20;;;;;;;5.52;100.00;99210.72;6277577;22;20363;-92
2022/02/16 08:20:49;;;;;;;3.97;2.45;;;;;;;5.56;100.00;99209.66;6278866;22;20011;-94
2022/02/16 08:23:16;;;;;;;6.05;2.35;;;;;;;5.69;100.00;99225.72;6280511;22;20015;-92
2022/02/16 08:25:48;;;;;;;7.45;2.35;;;;;;;5.59;100.00;99193.78;6284507;22;20058;-93
2022/02/16 08:28:18;;;;;;;4.25;2.13;;;;;;;5.60;100.00;99188.44;6284577;22;20486;-94
2022/02/16 08:30:48;;;;;;;4.22;2.38;;;;;;;5.75;100.00;99200.03;6281546;22;20024;-93
2022/02/16 08:33:16;;;;;;;2.63;2.00;;;;;;;5.89;100.00;99210.78;6283926;22;20023;-94
2022/02/16 08:35:44;;;;;;;7.13;2.53;;;;;;;5.94;100.00;99213.19;6283859;22;20012;-94
2022/02/16 08:38:14;;;;;;;6.95;2.20;;;;;;;5.90;100.00;99201.97;6281047;22;20023;-94
2022/02/16 08:40:43;;;;;;;7.18;2.00;;;;;;;5.99;100.00;99195.41;6280600;22;20122;-92
2022/02/16 08:43:28;;;;;;;4.70;1.85;;;;;;;5.89;100.00;99187.13;6277259;22;20015;-92
2022/02/16 08:45:59;;;;;;;3.70;1.67;;;;;;;5.99;100.00;99198.91;6248227;22;20089;-93
2022/02/16 08:48:28;;;;;;;7.47;2.08;;;;;;;5.87;100.00;99170.53;6273011;22;20348;-93
2022/02/16 08:50:57;;;;;;;3.92;1.70;;;;;;;5.85;100.00;99169.75;6274800;22;20019;-91
2022/02/16 08:53:27;;;;;;;3.15;1.70;;;;;;;6.06;100.00;99199.47;6275807;22;20443;-93
2022/02/16 08:55:59;;;;;;;4.35;1.42;;;;;;;5.83;100.00;99155.84;6274836;22;20502;-93
2022/02/16 08:58:29;;;;;;;;;;;;;;;6.18;100.00;99203.28;6274194;22;20567;-91
2022/02/16 09:00:57;;;;;;;3.10;1.70;;;;;;;6.07;100.00;99184.56;6274899;22;20227;-91
2022/02/16 09:03:27;;;;;;;3.25;1.30;;;;;;;6.11;100.00;99192.22;6274600;22;20433;-91
2022/02/16 09:05:59;;;;;;;3.83;1.77;;;;;;;5.86;100.00;99154.84;6275432;22;20015;-92
2022/02/16 09:08:32;;;;;;;3.47;1.55;;;;;;;6.14;100.00;99184.16;6275184;22;20020;-92
2022/02/16 09:10:59;;;;;;;4.78;1.90;;;;;;;6.02;100.00;99163.75;6277001;22;20026;-91
2022/02/16 09:13:26;;;;;;;3.08;1.80;;;;;;;6.02;100.00;99168.13;6275661;22;20020;-95
2022/02/16 09:15:57;;;;;;;4.97;1.88;;;;;;;6.11;100.00;99165.94;6250311;22;20529;-91
2022/02/16 09:18:38;;;;;;;4.25;2.00;;;;;;;6.23;100.00;99199.50;6274588;22;20716;-93
2022/02/16 09:21:06;;;;;;;2.67;1.88;;;;;;;5.98;100.00;99139.38;6277544;22;20055;-91
2022/02/16 09:23:34;;;;;;;2.55;1.83;;;;;;;6.14;100.00;99172.84;6251196;22;20023;-92
2022/02/16 09:26:03;;;;;;;4.43;1.90;;;;;;;6.18;100.00;99156.81;6279709;22;20108;-92
2022/02/16 09:28:34;;;;;;;2.65;1.73;;;;;;;6.24;100.00;99145.16;6278632;22;20024;-93
2022/02/16 09:31:07;;;;;;;4.28;2.20;;;;;;;6.07;100.00;99119.69;6254612;22;20031;-93
2022/02/16 09:33:34;;;;;;;5.10;2.00;;;;;;;6.20;100.00;99141.81;6280995;22;20220;-92
2022/02/16 09:36:01;;;;;;;5.78;1.95;;;;;;;6.21;100.00;99147.94;6276699;22;20073;-93
2022/02/16 09:38:28;;;;;;;4.20;2.05;;;;;;;6.00;100.00;99110.41;6274194;22;20018;-92
2022/02/16 09:40:55;;;;;;;5.75;2.20;;;;;;;6.22;100.00;99139.97;6274637;22;20043;-92
2022/02/16 09:43:27;;;;;;;7.65;2.33;;;;;;;6.11;100.00;99104.66;6276675;22;20012;-93
2022/02/16 09:45:58;;;;;;;5.30;2.58;;;;;;;6.33;100.00;99136.81;6275846;22;20069;-92
2022/02/16 09:48:27;;;;;;;3.33;2.28;;;;;;;6.24;100.00;99132.88;6272834;22;20600;-94
2022/02/16 09:50:58;;;;;;;3.97;2.20;;;;;;;6.31;100.00;99136.88;6272653;22;20045;-94
2022/02/16 09:53:31;;;;;;;2.97;1.90;;;;;;;6.29;100.00;99122.13;6249816;22;20084;-93
2022/02/16 09:56:08;;;;;;;5.85;2.53;;;;;;;6.31;100.00;99126.38;6273565;22;20061;-93
2022/02/16 09:58:37;;;;;;;4.95;2.42;;;;;;;6.39;100.00;99140.91;6274763;22;20235;-92
2022/02/16 10:01:09;;;;;;;4.75;2.30;;;;;;;6.47;100.00;99152.75;6275123;22;20026;-92
2022/02/16 10:03:39;;;;;;;6.63;2.58;;;;;;;6.57;100.00;99153.16;6278919;22;20032;-92
2022/02/16 10:06:44;;;;;;;4.18;2.50;;;;;;;6.29;100.00;99119.50;6291414;22;20020;-94
2022/02/16 10:09:26;;;;;;;3.28;2.55;;;;;;;6.48;100.00;99133.41;6296994;22;20007;-94
2022/02/16 10:12:01;;;;;;;5.78;2.53;;;;;;;6.32;100.00;99117.56;6291181;22;20019;-92
2022/02/16 10:14:36;;;;;;;4.93;2.40;;;;;;;6.40;100.00;99138.22;6282929;22;20015;-94
2022/02/16 10:17:23;;;;;;;3.63;2.58;;;;;;;6.27;100.00;99116.09;6283640;22;20023;-93
2022/02/16 10:20:01;;;;;;;5.30;3.10;;;;;;;6.28;100.00;99104.66;6272780;22;20022;-92
2022/02/16 10:22:46;;;;;;;4.43;2.90;;;;;;;6.25;100.00;99094.28;6277519;22;20023;-92
2022/02/16 10:25:46;;;;;;;4.43;2.97;;;;;;;6.26;100.00;99090.75;6277439;22;20046;-92
2022/02/16 10:28:23;;;;;;;4.63;2.45;;;;;;;6.43;100.00;99103.88;6277702;22;20344;-92
2022/02/16 10:31:09;;;;;;;8.52;3.13;;;;;;;6.44;100.00;99083.69;6246503;22;20020;-92
2022/02/16 10:33:54;;;;;;;2.83;2.60;;;;;;;6.39;100.00;99057.63;6245815;23;20016;-92
2022/02/16 10:36:29;;;;;;;2.80;2.05;;;;;;;6.52;100.00;99082.38;6246839;22;20012;-91
2022/02/16 10:38:57;;;;;;;4.32;2.30;;;;;;;6.58;100.00;99097.00;6244998;23;20016;-96
2022/02/16 10:41:43;;;;;;;2.53;2.25;;;;;;;6.77;100.00;99123.22;6246070;22;20085;-93
2022/02/16 10:44:33;;;;;;;3.03;2.60;;;;;;;6.50;100.00;99076.34;6246144;23;20094;-93
2022/02/16 10:47:04;;;;;;;5.78;2.60;;;;;;;6.59;100.00;99065.34;6245238;23;20012;-93
2022/02/16 10:49:46;;;;;;;5.13;3.00;;;;;;;6.67;100.00;99078.09;6245245;22;20020;-92
2022/02/16 10:52:23;;;;;;;3.90;2.50;;;;;;;6.75;100.00;99078.56;6245498;22;20019;-92
2022/02/16 10:55:00;;;;;;;3.97;2.17;;;;;;;6.79;100.00;99072.19;6246251;23;20016;-92
2022/02/16 10:57:27;;;;;;;2.17;1.83;;;;;;;6.94;100.00;99100.31;6245569;22;20032;-93
2022/02/16 11:00:00;;;;;;;3.83;1.92;;;;;;;7.02;100.00;99106.06;6243881;22;20016;-91
2022/02/16 11:02:31;;;;;;;2.15;1.73;;;;;;;7.01;100.00;99085.91;6246240;22;20325;-91
2022/02/16 11:05:12;;;;;;;2.13;1.70;;;;;;;7.09;100.00;99095.19;6245395;23;20076;-91
2022/02/16 11:07:59;;;;;;;2.17;1.98;;;;;;;7.06;100.00;99087.47;6246449;23;20070;-93
2022/02/16 11:10:27;;;;;;;2.50;1.80;;;;;;;6.94;100.00;99067.91;6247069;22;20016;-92
2022/02/16 11:12:57;;;;;;;1.95;1.55;;;;;;;7.24;100.00;99111.00;6248300;22;20017;-94
2022/02/16 11:15:25;;;;;;;2.30;1.90;;;;;;;7.24;100.00;99118.91;6249525;22;20629;-93
2022/02/16 11:18:24;;;;;;;3.80;1.80;;;;;;;7.16;100.00;99092.16;6247123;22;20437;-90
2022/02/16 11:21:21;;;;;;;;;;;;;;;;;;;;;
2022/02/16 11:23:54;;;;;;;1.92;1.50;;;;;;;7.24;100.00;99118.09;6247496;23;20017;-90
2022/02/16 11:26:37;;;;;;;3.35;1.92;;;;;;;7.30;100.00;99121.22;6248025;23;20047;-91
2022/02/16 11:29:07;;;;;;;5.00;1.92;;;;;;;7.36;100.00;99118.25;6256354;22;20055;-95
2022/02/16 11:31:37;;;;;;;;;;;;;;;7.46;100.00;99123.88;6282628;22;20018;-91
2022/02/16 11:34:23;;;;;;;2.80;1.65;;;;;;;7.56;100.00;99124.22;6283299;22;19919;-92
2022/02/16 11:37:02;;;;;;;2.20;1.70;;;;;;;7.49;100.00;99112.31;6285990;22;20440;-92
2022/02/16 11:39:49;;;;;;;2.30;1.58;;;;;;;7.63;100.00;99112.41;6259777;22;20489;-94
2022/02/16 11:42:20;;;;;;;1.98;1.73;;;;;;;7.63;100.00;99078.16;6284597;22;20025;-91
2022/02/16 11:44:53;;;;;;;2.92;1.40;;;;;;;7.86;100.00;99100.59;6255343;22;20042;-92
2022/02/16 11:47:34;;;;;;;2.90;1.80;;;;;;;7.92;100.00;99080.00;6283394;22;20042;-91
2022/02/16 11:50:10;;;;;;;2.38;1.67;;;;;;;7.95;100.00;99078.97;6252691;22;20023;-91
2022/02/16 11:52:50;;;;;;;2.03;1.55;;;;;;;7.93;100.00;99070.31;6275496;22;20024;-93
2022/02/16 11:55:23;;;;;;;2.40;1.55;;;;;;;7.87;100.00;99028.50;6280646;22;20104;-91
2022/02/16 11:57:53;;;;;;;1.88;1.48;;;;;;;7.99;100.00;99027.78;6280533;22;20014;-93
2022/02/16 12:00:30;;;;;;;2.05;1.27;;;;;;;8.14;100.00;99044.50;6251764;22;20031;-90
2022/02/16 12:03:05;;;;;;;3.50;1.53;;;;;;;8.51;100.00;99061.66;6276935;22;20369;-91
2022/02/16 12:06:01;;;;;;;1.60;1.25;;;;;;;8.69;100.00;99055.28;6277218;22;20446;-92
2022/02/16 12:08:51;;;;;;;2.60;1.27;;;;;;;8.55;100.00;99045.56;6276960;22;20020;-91
2022/02/16 12:11:23;;;;;;;1.77;0.90;;;;;;;8.56;100.00;99027.94;6277023;22;20103;-92
2022/02/16 12:13:54;;;;;;;3.20;1.40;;;;;;;8.76;100.00;99062.75;6277962;22;20039;-91
2022/02/16 12:16:29;;;;;;;3.00;1.10;;;;;;;8.72;100.00;99047.19;6277420;22;20462;-92
2022/02/16 12:19:00;;;;;;;1.33;1.02;;;;;;;8.69;100.00;99045.56;6275400;22;20016;-91
2022/02/16 12:21:51;;;;;;;2.70;1.17;;;;;;;8.68;100.00;99045.66;6272374;22;20309;-93
2022/02/16 12:24:19;;;;;;;;;;;;;;;8.73;100.00;99052.38;6252591;22;20019;-91
2022/02/16 12:26:54;;;;;;;1.58;0.93;;;;;;;8.63;100.00;99024.00;6281369;22;20478;-92
2022/02/16 12:29:29;;;;;;;1.42;1.23;;;;;;;8.86;100.00;99047.19;6247836;23;20099;-93
2022/02/16 12:32:13;;;;;;;1.42;0.88;;;;;;;8.69;100.00;99016.53;6246973;23;20017;-93
2022/02/16 12:34:43;;;;;;;1.38;0.95;;;;;;;8.56;100.00;99002.41;6247016;23;20444;-91
2022/02/16 12:37:27;;;;;;;3.03;1.00;;;;;;;8.68;100.00;99014.00;6220683;23;20113;-91
2022/02/16 12:40:00;;;;;;;2.88;0.93;;;;;;;8.68;100.00;98992.88;6243149;23;20031;-91
2022/02/16 12:42:32;;;;;;;1.73;0.90;;;;;;;8.77;100.00;98994.97;6245653;23;20718;-93
2022/02/16 12:44:59;;;;;;;4.72;1.05;;;;;;;8.84;100.00;98987.50;6245616;23;20021;-92
2022/02/16 12:47:26;;;;;;;1.80;1.00;;;;;;;8.88;100.00;99005.69;6247448;23;20078;-91
2022/02/16 12:49:54;;;;;;;1.35;1.15;;;;;;;8.98;100.00;99004.19;6246255;23;20035;-91
2022/02/16 12:52:28;;;;;;;1.75;1.10;;;;;;;9.20;100.00;99027.47;6245643;23;20058;-90
2022/02/16 12:54:55;;;;;;;1.90;0.75;;;;;;;9.27;100.00;99020.00;6246714;23;20031;-91
2022/02/16 12:57:27;;;;;;;1.02;0.63;;;;;;;9.31;100.00;99003.84;6247005;23;20107;-92
2022/02/16 13:02:50;;;;;;;0.52;0.50;;;;;;;9.44;99.57;98980.97;6245361;23;20016;-90
2022/02/16 13:05:47;;;;;;;2.47;0.90;;;;;;;9.52;99.63;98993.69;6246891;23;20386;-91
2022/02/16 13:08:15;;;;;;;0.98;0.57;;;;;;;9.49;100.00;98999.19;6248557;23;20484;-90
2022/02/16 13:10:43;;;;;;;1.13;1.02;;;;;;;9.26;100.00;98947.84;6244699;23;20012;-90
2022/02/16 13:13:20;;;;;;;1.15;0.82;;;;;;;9.54;100.00;98981.25;6246067;23;20024;-90
2022/02/16 13:15:49;;;;;;;0.50;0.50;;;;;;;9.58;100.00;98980.09;6246871;23;20023;-89